createdAt,value
2022-08-17T00:03:23.395Z,16.3
2022-08-17T00:08:24.887Z,16.2
2022-08-17T00:33:33.029Z,15.9
2022-08-17T00:38:32.303Z,15.9
2022-08-17T00:43:25.771Z,15.8
2022-08-17T00:48:27.317Z,15.7
2022-08-17T00:53:24.394Z,15.7
2022-08-17T00:58:30.470Z,15.6
2022-08-17T01:03:24.357Z,15.5
2022-08-17T01:08:24.258Z,15.4
2022-08-17T01:13:24.515Z,15.4
2022-08-17T01:18:25.048Z,15.3
2022-08-17T01:23:25.105Z,15.3
2022-08-17T01:28:33.705Z,15.1
2022-08-17T01:33:24.238Z,15
2022-08-17T01:43:24.345Z,15
2022-08-17T01:53:24.325Z,15
2022-08-17T02:08:37.469Z,14.9
2022-08-17T02:13:24.267Z,14.9
2022-08-17T02:18:24.265Z,14.9
2022-08-17T02:23:24.538Z,14.9
2022-08-17T02:28:24.403Z,14.8
2022-08-17T02:33:24.401Z,14.8
2022-08-17T02:38:24.460Z,14.7
2022-08-17T02:43:24.350Z,14.6
2022-08-17T02:48:30.491Z,14.6
2022-08-17T02:53:24.362Z,14.4
2022-08-17T02:58:29.669Z,14.4
2022-08-17T03:03:24.403Z,14.4
2022-08-17T03:08:24.522Z,14.4
2022-08-17T03:13:24.385Z,14.4
2022-08-17T03:18:26.571Z,14.3
2022-08-17T03:23:25.322Z,14.3
2022-08-17T03:33:24.289Z,14.3
2022-08-17T03:38:24.359Z,14.2
2022-08-17T03:43:24.333Z,14.1
2022-08-17T03:48:25.361Z,14
2022-08-17T03:53:24.349Z,13.9
2022-08-17T04:03:24.351Z,13.9
2022-08-17T04:08:24.394Z,13.9
2022-08-17T04:13:25.609Z,13.8
2022-08-17T04:18:27.766Z,13.8
2022-08-17T04:23:27.742Z,13.8
2022-08-17T04:28:27.713Z,13.9
2022-08-17T04:33:27.763Z,14
2022-08-17T04:43:29.186Z,14.1
2022-08-17T04:48:27.838Z,14.2
2022-08-17T04:58:28.015Z,14.3
2022-08-17T05:03:27.802Z,14.3
2022-08-17T05:08:27.758Z,14.4
2022-08-17T05:13:27.761Z,14.6
2022-08-17T05:18:27.798Z,14.6
2022-08-17T05:23:28.671Z,14.8
2022-08-17T05:28:28.063Z,14.9
2022-08-17T05:33:27.803Z,15.1
2022-08-17T05:38:27.788Z,15.4
2022-08-17T05:43:27.754Z,15.6
2022-08-17T05:48:35.767Z,15.8
2022-08-17T05:53:27.740Z,16.1
2022-08-17T05:58:27.805Z,16.2
2022-08-17T06:03:27.822Z,16.4
2022-08-17T06:08:27.765Z,16.5
2022-08-17T06:13:27.793Z,16.6
2022-08-17T06:18:27.782Z,16.7
2022-08-17T06:23:27.974Z,16.8
2022-08-17T06:28:27.829Z,16.9
2022-08-17T06:33:27.883Z,16.9
2022-08-17T06:38:35.030Z,16.9
2022-08-17T06:43:27.836Z,16.9
2022-08-17T06:48:27.801Z,17.1
2022-08-17T06:53:28.061Z,17.3
2022-08-17T07:03:27.761Z,17.8
2022-08-17T07:08:31.276Z,17.9
2022-08-17T07:13:27.786Z,18.1
2022-08-17T07:18:27.766Z,18.3
2022-08-17T07:23:27.946Z,18.6
2022-08-17T07:28:27.866Z,19.1
2022-08-17T07:33:28.096Z,19.3
2022-08-17T07:38:27.779Z,19.5
2022-08-17T07:43:27.804Z,19.9
2022-08-17T07:48:27.954Z,20
2022-08-17T07:53:27.786Z,20.3
2022-08-17T07:58:27.798Z,20.6
2022-08-17T08:03:28.426Z,21
2022-08-17T08:08:27.809Z,22.1
2022-08-17T08:13:27.872Z,22.5
2022-08-17T08:18:38.497Z,23.5
2022-08-17T08:23:28.023Z,23.6
2022-08-17T08:28:27.779Z,23.7
2022-08-17T08:33:27.802Z,24.2
2022-08-17T08:38:28.183Z,24.1
2022-08-17T08:43:27.823Z,24.7
2022-08-17T08:48:53.997Z,25.1
2022-08-17T08:53:27.830Z,24.9
2022-08-17T08:58:30.906Z,25.9
2022-08-17T09:03:42.698Z,26.6
2022-08-17T09:08:27.845Z,27.3
2022-08-17T09:13:27.863Z,27.3
2022-08-17T09:18:59.445Z,27.4
2022-08-17T09:28:28.182Z,27.9
2022-08-17T09:33:27.817Z,28.3
2022-08-17T09:38:32.266Z,28.4
2022-08-17T09:43:28.068Z,28.8
2022-08-17T09:48:27.897Z,29.3
2022-08-17T09:53:31.618Z,29.8
2022-08-17T09:58:28.999Z,29.8
2022-08-17T10:03:27.834Z,29.3
2022-08-17T10:08:30.507Z,30.8
2022-08-17T10:13:27.873Z,31.4
2022-08-17T10:18:30.403Z,32.2
2022-08-17T10:23:30.215Z,32.6
2022-08-17T10:28:30.739Z,32.8
2022-08-17T10:33:29.927Z,32.4
2022-08-17T10:38:30.051Z,32.1
2022-08-17T10:43:29.961Z,32.3
2022-08-17T10:48:30.425Z,32.1
2022-08-17T10:53:30.056Z,31.9
2022-08-17T11:03:30.170Z,32.3
2022-08-17T11:13:30.125Z,33.2
2022-08-17T11:18:30.183Z,31.6
2022-08-17T11:23:30.226Z,32.9
2022-08-17T11:28:30.094Z,33.6
2022-08-17T11:33:30.377Z,34.5
2022-08-17T11:38:30.124Z,34.6
2022-08-17T11:43:30.122Z,34.4
2022-08-17T11:48:30.584Z,32.9
2022-08-17T11:53:30.089Z,33.8
2022-08-17T12:03:31.915Z,33.4
2022-08-17T12:08:30.239Z,32.9
2022-08-17T12:13:30.643Z,32.9
2022-08-17T12:18:30.101Z,32.4
2022-08-17T12:23:30.148Z,32.9
2022-08-17T12:28:30.531Z,35.1
2022-08-17T12:33:30.317Z,36.1
2022-08-17T12:38:33.537Z,37
2022-08-17T12:43:30.346Z,37.4
2022-08-17T12:48:32.514Z,33.6
2022-08-17T12:53:30.294Z,32.4
2022-08-17T12:58:33.678Z,31.8
2022-08-17T13:03:34.265Z,32.2
2022-08-17T13:08:30.052Z,32.8
2022-08-17T13:13:30.100Z,32.9
2022-08-17T13:18:30.088Z,34.2
2022-08-17T13:23:30.539Z,32.4
2022-08-17T13:28:35.845Z,31.7
2022-08-17T13:33:43.545Z,31.4
2022-08-17T13:43:30.536Z,31.2
2022-08-17T13:48:30.029Z,31.3
2022-08-17T13:53:30.063Z,32.4
2022-08-17T13:58:30.966Z,34.9
2022-08-17T14:03:29.976Z,34.9
2022-08-17T14:08:30.039Z,35.5
2022-08-17T14:13:29.981Z,35.1
2022-08-17T14:18:34.254Z,33.9
2022-08-17T14:23:30.100Z,32.6
2022-08-17T14:28:30.193Z,32.2
2022-08-17T14:33:30.191Z,31.4
2022-08-17T14:53:34.050Z,31.9
2022-08-17T14:58:34.055Z,33
2022-08-17T15:03:34.055Z,33.4
2022-08-17T15:13:34.089Z,33.9
2022-08-17T15:18:34.211Z,33.3
2022-08-17T15:23:34.034Z,32.7
2022-08-17T15:28:34.086Z,32.7
2022-08-17T15:33:34.065Z,32.2
2022-08-17T15:38:34.042Z,31.4
2022-08-17T15:43:34.001Z,31.1
2022-08-17T15:48:34.034Z,30.7
2022-08-17T15:53:34.075Z,30
2022-08-17T16:18:38.236Z,29.9
2022-08-17T16:23:45.908Z,30.3
2022-08-17T16:28:38.198Z,29.9
2022-08-17T16:33:38.121Z,29.4
2022-08-17T16:38:38.068Z,29.1
2022-08-17T16:43:38.307Z,29.1
2022-08-17T16:48:38.066Z,28.8
2022-08-17T16:53:38.209Z,28.4
2022-08-17T16:58:38.061Z,28.1
2022-08-17T17:03:38.115Z,27.8
2022-08-17T17:08:40.802Z,27.6
2022-08-17T17:13:38.083Z,27.5
2022-08-17T17:18:38.068Z,27.3
2022-08-17T17:23:38.091Z,27.1
2022-08-17T17:28:38.068Z,26.9
2022-08-17T17:33:38.119Z,26.8
2022-08-17T17:38:38.333Z,26.6
2022-08-17T17:43:39.887Z,26.4
2022-08-17T17:48:38.060Z,26.3
2022-08-17T17:53:43.462Z,25.9
2022-08-17T17:58:38.108Z,25.8
2022-08-17T18:03:38.126Z,25.6
2022-08-17T18:08:38.054Z,25.5
2022-08-17T18:13:38.109Z,25.3
2022-08-17T18:18:38.218Z,25
2022-08-17T18:23:38.198Z,24.8
2022-08-17T18:28:38.081Z,24.6
2022-08-17T18:33:38.061Z,24.4
2022-08-17T18:38:38.098Z,24.3
2022-08-17T18:43:43.903Z,24.1
2022-08-17T18:48:38.097Z,23.3
2022-08-17T18:53:38.098Z,21.6
2022-08-17T18:58:38.105Z,20.8
2022-08-17T19:03:38.170Z,20.8
2022-08-17T19:08:38.108Z,20.9
2022-08-17T19:13:38.103Z,21.1
2022-08-17T19:18:38.095Z,21.2
2022-08-17T19:33:38.256Z,21.4
2022-08-17T19:38:38.170Z,21.2
2022-08-17T19:43:38.128Z,21.1
2022-08-17T19:48:38.116Z,21
2022-08-17T19:54:02.011Z,21
2022-08-17T19:58:38.081Z,21.1
2022-08-17T20:03:39.320Z,20.9
2022-08-17T20:08:38.133Z,20.8
2022-08-17T20:13:38.486Z,20.8
2022-08-17T20:18:38.099Z,20.8
2022-08-17T20:23:38.252Z,21.1
2022-08-17T20:28:38.145Z,21.2
2022-08-17T20:33:38.234Z,21
2022-08-17T20:38:38.175Z,21.1
2022-08-17T20:43:38.166Z,21.1
2022-08-17T20:48:38.851Z,20.8
2022-08-17T20:53:38.192Z,20.7
2022-08-17T20:58:38.146Z,20.6
2022-08-17T21:03:50.750Z,20.4
2022-08-17T21:08:40.351Z,20.3
2022-08-17T21:13:38.159Z,20.2
2022-08-17T21:18:38.161Z,20.2
2022-08-17T21:23:38.167Z,20.3
2022-08-17T21:28:38.181Z,20.1
2022-08-17T21:33:38.427Z,20.3
2022-08-17T21:38:38.173Z,20.4
2022-08-17T21:43:38.192Z,20.4
2022-08-17T21:48:38.317Z,20.4
2022-08-17T21:53:38.186Z,20.4
2022-08-17T21:58:38.205Z,20.6
2022-08-17T22:03:38.263Z,20.6
2022-08-17T22:08:38.157Z,20.6
2022-08-17T22:13:38.179Z,20.5
2022-08-17T22:18:38.226Z,20.4
2022-08-17T22:23:38.217Z,20.4
2022-08-17T22:28:39.266Z,20.4
2022-08-17T22:33:38.748Z,20.4
2022-08-17T22:38:38.735Z,20.4
2022-08-17T22:43:38.180Z,20.3
2022-08-17T22:48:38.180Z,20.3
2022-08-17T22:53:38.176Z,20.2
2022-08-17T22:58:38.181Z,20.2
2022-08-17T23:03:38.204Z,20.4
2022-08-17T23:08:38.246Z,20.5
2022-08-17T23:13:38.201Z,20.6
2022-08-17T23:18:38.234Z,20.6
2022-08-17T23:23:38.232Z,20.5
2022-08-17T23:28:38.234Z,20.6
2022-08-17T23:33:38.271Z,20.7
2022-08-17T23:38:38.221Z,20.9
2022-08-17T23:43:38.170Z,21.2
2022-08-17T23:48:38.215Z,21.4
2022-08-17T23:53:38.236Z,21.5
2022-08-17T23:58:38.176Z,21.8
